createdAt,value
2022-08-31T00:02:30.880Z,96556.59
2022-08-31T00:05:00.300Z,96559.13
2022-08-31T00:07:29.140Z,96558.63
2022-08-31T00:09:57.506Z,96557.00
2022-08-31T00:12:28.080Z,96551.59
2022-08-31T00:14:56.414Z,96553.94
2022-08-31T00:17:25.134Z,96540.31
2022-08-31T00:19:54.218Z,96546.91
2022-08-31T00:22:23.130Z,96534.66
2022-08-31T00:24:51.496Z,96558.44
2022-08-31T00:27:22.285Z,96557.91
2022-08-31T00:29:52.046Z,96545.81
2022-08-31T00:32:21.382Z,96551.81
2022-08-31T00:34:52.728Z,96548.56
2022-08-31T00:37:21.339Z,96546.41
2022-08-31T00:39:50.714Z,96548.16
2022-08-31T00:42:19.878Z,96550.91
2022-08-31T00:44:48.264Z,96537.94
2022-08-31T00:47:19.060Z,96525.59
2022-08-31T00:49:51.390Z,96531.72
2022-08-31T00:52:24.142Z,96543.88
2022-08-31T00:54:56.334Z,96535.06
2022-08-31T00:57:34.463Z,96533.75
2022-08-31T01:00:08.466Z,96530.00
2022-08-31T01:02:38.780Z,96537.44
2022-08-31T01:05:09.134Z,96539.91
2022-08-31T01:07:39.434Z,96536.00
2022-08-31T01:10:10.103Z,96533.03
2022-08-31T01:12:39.256Z,96541.63
2022-08-31T01:15:10.770Z,96545.19
2022-08-31T01:17:42.178Z,96540.00
2022-08-31T01:20:17.826Z,96538.69
2022-08-31T01:22:58.743Z,96541.72
2022-08-31T01:25:33.608Z,96543.66
2022-08-31T01:28:05.580Z,96544.78
2022-08-31T01:30:35.870Z,96540.91
2022-08-31T01:33:05.228Z,96540.91
2022-08-31T01:35:35.339Z,96534.06
2022-08-31T01:38:05.415Z,96532.13
2022-08-31T01:40:38.365Z,96528.88
2022-08-31T01:43:06.784Z,96539.34
2022-08-31T01:45:36.523Z,96537.72
2022-08-31T01:48:06.288Z,96537.44
2022-08-31T01:50:35.631Z,96532.53
2022-08-31T01:53:05.969Z,96541.16
2022-08-31T01:55:34.355Z,96538.22
2022-08-31T01:58:03.988Z,96541.47
2022-08-31T02:00:51.241Z,96535.16
2022-08-31T02:03:20.671Z,96531.09
2022-08-31T02:05:49.499Z,96526.16
2022-08-31T02:08:19.402Z,96527.59
2022-08-31T02:10:47.899Z,96525.66
2022-08-31T02:13:16.862Z,96523.81
2022-08-31T02:15:46.918Z,96532.06
2022-08-31T02:18:17.232Z,96517.50
2022-08-31T02:20:47.706Z,96522.19
2022-08-31T02:23:16.206Z,96522.41
2022-08-31T02:25:46.684Z,96519.34
2022-08-31T02:28:15.449Z,96513.34
2022-08-31T02:30:45.431Z,96519.94
2022-08-31T02:33:14.695Z,96519.44
2022-08-31T02:35:44.500Z,96517.50
2022-08-31T02:38:13.282Z,96508.13
2022-08-31T02:40:43.400Z,96512.63
2022-08-31T02:43:24.495Z,96519.84
2022-08-31T02:45:56.191Z,96516.25
2022-08-31T02:48:30.159Z,96517.59
2022-08-31T02:51:06.014Z,96516.78
2022-08-31T02:53:35.662Z,96518.50
2022-08-31T02:56:05.394Z,96516.56
2022-08-31T02:58:36.747Z,96517.16
2022-08-31T03:01:05.933Z,96511.78
2022-08-31T03:03:36.151Z,96514.59
2022-08-31T03:06:05.722Z,96512.69
2022-08-31T03:08:34.963Z,96511.03
2022-08-31T03:11:03.887Z,96512.16
2022-08-31T03:13:33.176Z,96525.13
2022-08-31T03:16:05.112Z,96526.75
2022-08-31T03:18:34.331Z,96524.81
2022-08-31T03:21:02.764Z,96518.19
2022-08-31T03:23:32.274Z,96521.00
2022-08-31T03:26:00.858Z,96520.19
2022-08-31T03:28:30.001Z,96520.31
2022-08-31T03:31:22.740Z,96518.44
2022-08-31T03:33:51.542Z,96514.88
2022-08-31T03:36:19.940Z,96516.50
2022-08-31T03:38:48.743Z,96511.91
2022-08-31T03:41:21.025Z,96517.41
2022-08-31T03:43:49.607Z,96516.59
2022-08-31T03:46:19.085Z,96516.91
2022-08-31T03:48:49.925Z,96524.66
2022-08-31T03:51:20.122Z,96521.38
2022-08-31T03:53:49.815Z,96523.00
2022-08-31T03:56:20.874Z,96526.88
2022-08-31T03:58:51.764Z,96531.84
2022-08-31T04:01:46.981Z,96528.66
2022-08-31T04:04:35.518Z,96530.91
2022-08-31T04:07:22.963Z,96539.47
2022-08-31T04:10:11.475Z,96542.78
2022-08-31T04:12:58.956Z,96541.72
2022-08-31T04:15:37.891Z,96553.53
2022-08-31T04:18:25.274Z,96548.09
2022-08-31T04:20:56.021Z,96550.84
2022-08-31T04:23:29.243Z,96554.41
2022-08-31T04:25:59.519Z,96560.13
2022-08-31T04:28:28.078Z,96561.47
2022-08-31T04:30:57.474Z,96559.53
2022-08-31T04:33:25.871Z,96562.88
2022-08-31T04:35:56.111Z,96567.84
2022-08-31T04:38:25.240Z,96554.97
2022-08-31T04:40:54.886Z,96554.16
2022-08-31T04:43:24.248Z,96561.56
2022-08-31T04:45:53.357Z,96544.00
2022-08-31T04:48:22.746Z,96544.25
2022-08-31T04:50:51.850Z,96539.06
2022-08-31T04:53:21.687Z,96526.75
2022-08-31T04:55:51.723Z,96536.13
2022-08-31T04:58:20.611Z,96529.19
2022-08-31T05:00:49.840Z,96529.00
2022-08-31T05:03:45.198Z,96540.19
2022-08-31T05:06:15.029Z,96531.63
2022-08-31T05:08:46.506Z,96537.44
2022-08-31T05:11:23.007Z,96543.25
2022-08-31T05:13:54.644Z,96544.56
2022-08-31T05:16:23.298Z,96546.50
2022-08-31T05:18:52.822Z,96547.13
2022-08-31T05:21:28.469Z,96553.72
2022-08-31T05:24:00.878Z,96555.34
2022-08-31T05:26:31.810Z,96531.94
2022-08-31T05:29:01.810Z,96557.50
2022-08-31T05:31:31.175Z,96557.00
2022-08-31T05:34:02.178Z,96561.53
2022-08-31T05:36:38.138Z,96565.09
2022-08-31T05:39:12.249Z,96552.31
2022-08-31T05:41:41.791Z,96574.41
2022-08-31T05:44:11.218Z,96579.59
2022-08-31T05:46:42.177Z,96571.84
2022-08-31T05:49:11.842Z,96573.28
2022-08-31T05:51:41.374Z,96572.75
2022-08-31T05:54:11.402Z,96571.34
2022-08-31T05:56:42.856Z,96568.91
2022-08-31T05:59:12.416Z,96566.34
2022-08-31T06:01:42.526Z,96570.47
2022-08-31T06:04:15.030Z,96568.78
2022-08-31T06:06:45.280Z,96567.41
2022-08-31T06:09:17.742Z,96569.03
2022-08-31T06:11:47.681Z,96567.41
2022-08-31T06:14:19.056Z,96571.84
2022-08-31T06:16:49.556Z,96575.41
2022-08-31T06:19:22.050Z,96578.09
2022-08-31T06:21:52.496Z,96586.84
2022-08-31T06:24:29.670Z,96585.72
2022-08-31T06:27:00.048Z,96591.78
2022-08-31T06:29:31.765Z,96597.16
2022-08-31T06:32:10.561Z,96578.03
2022-08-31T06:34:49.809Z,96589.47
2022-08-31T06:37:41.054Z,96600.66
2022-08-31T06:40:16.397Z,96595.69
2022-08-31T06:42:45.498Z,96601.09
2022-08-31T06:45:30.670Z,96594.19
2022-08-31T06:48:25.163Z,96593.28
2022-08-31T06:50:57.381Z,96599.81
2022-08-31T06:53:27.511Z,96606.88
2022-08-31T06:56:23.498Z,96599.94
2022-08-31T06:59:11.866Z,96613.63
2022-08-31T07:01:59.518Z,96606.38
2022-08-31T07:04:36.512Z,96605.81
2022-08-31T07:07:07.106Z,96597.53
2022-08-31T07:09:36.279Z,96613.44
2022-08-31T07:12:08.470Z,96605.50
2022-08-31T07:14:37.495Z,96620.50
2022-08-31T07:17:08.734Z,96615.22
2022-08-31T07:19:37.447Z,96617.38
2022-08-31T07:22:15.580Z,96617.16
2022-08-31T07:24:46.127Z,96627.03
2022-08-31T07:27:18.800Z,96630.84
2022-08-31T07:29:54.755Z,96633.28
2022-08-31T07:32:25.338Z,96623.06
2022-08-31T07:34:59.816Z,96641.75
2022-08-31T07:37:50.267Z,96634.81
2022-08-31T07:40:41.257Z,96641.66
2022-08-31T07:43:13.618Z,96629.53
2022-08-31T07:45:43.469Z,96629.75
2022-08-31T07:48:16.388Z,96634.03
2022-08-31T07:51:23.266Z,96626.78
2022-08-31T07:54:21.135Z,96631.69
2022-08-31T07:57:08.376Z,96630.25
2022-08-31T07:59:40.219Z,96647.50
2022-08-31T08:02:12.938Z,96634.78
2022-08-31T08:04:44.178Z,96636.41
2022-08-31T08:07:36.750Z,96634.38
2022-08-31T08:10:30.374Z,96634.47
2022-08-31T08:13:19.241Z,96639.25
2022-08-31T08:15:57.514Z,96633.13
2022-08-31T08:18:44.803Z,96632.81
2022-08-31T08:21:16.398Z,96635.78
2022-08-31T08:23:48.534Z,96634.09
2022-08-31T08:26:53.958Z,96642.53
2022-08-31T08:29:35.325Z,96642.03
2022-08-31T08:32:08.687Z,96638.22
2022-08-31T08:34:43.978Z,96636.84
2022-08-31T08:37:14.326Z,96640.41
2022-08-31T08:39:44.223Z,96634.28
2022-08-31T08:42:17.602Z,96652.13
2022-08-31T08:44:46.907Z,96645.28
2022-08-31T08:47:38.254Z,96651.69
2022-08-31T08:50:09.612Z,96654.41
2022-08-31T08:52:43.876Z,96650.00
2022-08-31T08:55:15.523Z,96651.41
2022-08-31T08:57:47.031Z,96660.75
2022-08-31T09:00:19.736Z,96659.06
2022-08-31T09:03:01.477Z,96670.34
2022-08-31T09:06:00.225Z,96665.06
2022-08-31T09:08:59.972Z,96662.69
2022-08-31T09:11:39.218Z,96673.16
2022-08-31T09:14:20.199Z,96672.50
2022-08-31T09:16:56.212Z,96674.97
2022-08-31T09:19:27.366Z,96669.00
2022-08-31T09:22:02.120Z,96679.28
2022-08-31T09:24:32.878Z,96672.00
2022-08-31T09:27:47.618Z,96668.31
2022-08-31T09:30:35.087Z,96667.69
2022-08-31T09:33:04.044Z,96669.31
2022-08-31T09:35:41.711Z,96668.19
2022-08-31T09:38:15.186Z,96673.06
2022-08-31T09:40:48.765Z,96669.19
2022-08-31T09:43:29.971Z,96672.63
2022-08-31T09:46:05.519Z,96676.69
2022-08-31T09:48:44.426Z,96666.28
2022-08-31T09:51:23.503Z,96671.00
2022-08-31T09:54:11.260Z,96670.66
2022-08-31T09:56:55.829Z,96671.16
2022-08-31T09:59:38.565Z,96670.00
2022-08-31T10:02:11.299Z,96671.81
2022-08-31T10:04:53.167Z,96661.38
2022-08-31T10:07:37.679Z,96669.19
2022-08-31T10:10:30.476Z,96663.66
2022-08-31T10:13:03.725Z,96659.91
2022-08-31T10:15:39.773Z,96664.09
2022-08-31T10:18:14.195Z,96662.47
2022-08-31T10:20:48.788Z,96667.53
2022-08-31T10:23:27.594Z,96672.03
2022-08-31T10:26:02.807Z,96678.72
2022-08-31T10:28:37.250Z,96684.38
2022-08-31T10:31:13.781Z,96676.59
2022-08-31T10:34:06.374Z,96688.75
2022-08-31T10:36:39.169Z,96697.69
2022-08-31T10:39:20.090Z,96693.44
2022-08-31T10:41:51.683Z,96696.34
2022-08-31T10:44:28.808Z,96703.94
2022-08-31T10:47:03.267Z,96702.75
2022-08-31T10:49:32.202Z,96704.00
2022-08-31T10:52:10.812Z,96703.50
2022-08-31T10:54:51.402Z,96710.34
2022-08-31T10:57:35.172Z,96721.50
2022-08-31T11:00:09.268Z,96725.41
2022-08-31T11:02:46.547Z,96726.22
2022-08-31T11:05:30.468Z,96731.75
2022-08-31T11:08:07.138Z,96724.53
2022-08-31T11:10:48.581Z,96722.28
2022-08-31T11:13:41.092Z,96721.31
2022-08-31T11:19:18.689Z,96725.06
2022-08-31T11:22:16.861Z,96726.78
2022-08-31T11:25:08.509Z,96725.94
2022-08-31T11:27:44.603Z,96731.81
2022-08-31T11:30:24.495Z,96733.06
2022-08-31T11:32:57.010Z,96738.06
2022-08-31T11:36:06.708Z,96735.44
2022-08-31T11:38:54.634Z,96736.78
2022-08-31T11:41:41.678Z,96742.81
2022-08-31T11:44:33.105Z,96741.31
2022-08-31T11:47:07.616Z,96752.41
2022-08-31T11:49:45.216Z,96758.97
2022-08-31T11:52:29.693Z,96756.41
2022-08-31T11:55:04.590Z,96766.13
2022-08-31T11:57:59.952Z,96759.47
2022-08-31T12:00:44.693Z,96752.78
2022-08-31T12:04:04.039Z,96753.47
2022-08-31T12:07:01.047Z,96758.59
2022-08-31T12:09:48.530Z,96766.50
2022-08-31T12:12:30.931Z,96758.91
2022-08-31T12:15:09.689Z,96763.00
2022-08-31T12:17:48.827Z,96763.81
2022-08-31T12:20:24.509Z,96768.50
2022-08-31T12:23:37.870Z,96775.72
2022-08-31T12:26:36.050Z,96777.56
2022-08-31T12:29:32.552Z,96776.06
2022-08-31T12:32:12.876Z,96784.19
2022-08-31T12:34:46.295Z,96775.53
2022-08-31T12:37:25.083Z,96773.31
2022-08-31T12:40:26.194Z,96787.00
2022-08-31T12:43:00.960Z,96781.09
2022-08-31T12:46:12.361Z,96791.75
2022-08-31T12:49:06.213Z,96784.19
2022-08-31T12:51:44.114Z,96781.81
2022-08-31T12:54:54.884Z,96779.81
2022-08-31T12:57:42.875Z,96783.94
2022-08-31T13:00:18.211Z,96784.56
2022-08-31T13:02:49.904Z,96789.22
2022-08-31T13:05:22.286Z,96787.81
2022-08-31T13:07:51.434Z,96783.81
2022-08-31T13:10:30.810Z,96782.63
2022-08-31T13:13:03.576Z,96780.59
2022-08-31T13:15:39.367Z,96782.59
2022-08-31T13:18:12.303Z,96774.91
2022-08-31T13:20:43.423Z,96775.47
2022-08-31T13:23:15.867Z,96771.25
2022-08-31T13:25:49.713Z,96776.16
2022-08-31T13:28:26.475Z,96774.16
2022-08-31T13:31:03.309Z,96774.16
2022-08-31T13:33:35.528Z,96766.13
2022-08-31T13:36:10.120Z,96760.31
2022-08-31T13:38:53.743Z,96764.34
2022-08-31T13:41:28.686Z,96754.97
2022-08-31T13:44:03.673Z,96770.91
2022-08-31T13:46:44.595Z,96766.22
2022-08-31T13:49:32.211Z,96767.19
2022-08-31T13:52:01.684Z,96767.50
2022-08-31T13:54:33.429Z,96756.72
2022-08-31T13:57:23.091Z,96765.03
2022-08-31T13:59:53.607Z,96763.69
2022-08-31T14:02:36.890Z,96762.81
2022-08-31T14:05:09.960Z,96761.38
2022-08-31T14:07:56.378Z,96767.50
2022-08-31T14:10:27.335Z,96765.56
2022-08-31T14:12:59.478Z,96773.44
2022-08-31T14:15:40.973Z,96767.06
2022-08-31T14:18:24.636Z,96772.78
2022-08-31T14:21:23.527Z,96772.28
2022-08-31T14:24:01.264Z,96766.03
2022-08-31T14:26:33.968Z,96772.63
2022-08-31T14:29:10.337Z,96764.38
2022-08-31T14:31:45.655Z,96762.66
2022-08-31T14:34:22.120Z,96765.16
2022-08-31T14:36:55.534Z,96742.75
2022-08-31T14:39:28.430Z,96763.06
2022-08-31T14:41:58.888Z,96779.09
2022-08-31T14:44:31.772Z,96776.94
2022-08-31T14:47:02.265Z,96772.03
2022-08-31T14:49:35.992Z,96771.72
2022-08-31T14:52:06.991Z,96767.03
2022-08-31T14:54:37.190Z,96767.03
2022-08-31T14:57:12.497Z,96762.13
2022-08-31T14:59:43.343Z,96765.53
2022-08-31T15:02:16.825Z,96763.63
2022-08-31T15:04:45.836Z,96761.44
2022-08-31T15:07:16.872Z,96765.31
2022-08-31T15:09:47.811Z,96757.34
2022-08-31T15:12:19.595Z,96763.06
2022-08-31T15:14:48.170Z,96752.63
2022-08-31T15:17:20.274Z,96754.53
2022-08-31T15:19:55.193Z,96754.00
2022-08-31T15:22:26.086Z,96760.94
2022-08-31T15:24:56.698Z,96756.03
2022-08-31T15:27:28.723Z,96765.63
2022-08-31T15:30:08.115Z,96759.06
2022-08-31T15:32:40.234Z,96760.78
2022-08-31T15:35:09.695Z,96759.97
2022-08-31T15:37:40.388Z,96761.91
2022-08-31T15:40:11.498Z,96757.56
2022-08-31T15:42:43.596Z,96760.59
2022-08-31T15:45:12.734Z,96763.91
2022-08-31T15:47:59.762Z,96756.84
2022-08-31T15:50:31.511Z,96761.81
2022-08-31T15:53:08.196Z,96763.53
2022-08-31T15:55:41.203Z,96769.06
2022-08-31T15:58:11.260Z,96770.19
2022-08-31T16:00:42.368Z,96766.88
2022-08-31T16:03:13.112Z,96772.63
2022-08-31T16:05:44.675Z,96763.31
2022-08-31T16:08:14.282Z,96764.75
2022-08-31T16:10:45.336Z,96759.25
2022-08-31T16:13:16.366Z,96758.38
2022-08-31T16:15:51.081Z,96734.03
2022-08-31T16:18:23.101Z,96744.91
2022-08-31T16:20:52.176Z,96751.59
2022-08-31T16:23:21.750Z,96754.59
2022-08-31T16:25:51.449Z,96747.47
2022-08-31T16:28:22.267Z,96749.94
2022-08-31T16:30:52.174Z,96743.91
2022-08-31T16:33:22.011Z,96745.63
2022-08-31T16:35:50.867Z,96747.47
2022-08-31T16:38:20.321Z,96749.09
2022-08-31T16:40:49.085Z,96735.16
2022-08-31T16:43:18.376Z,96740.06
2022-08-31T16:45:47.127Z,96749.94
2022-08-31T16:48:33.446Z,96747.47
2022-08-31T16:51:04.435Z,96748.59
2022-08-31T16:53:33.236Z,96748.88
2022-08-31T16:56:03.888Z,96753.88
2022-08-31T16:58:51.053Z,96752.75
2022-08-31T17:01:24.058Z,96754.72
2022-08-31T17:03:54.679Z,96755.53
2022-08-31T17:06:25.122Z,96755.88
2022-08-31T17:08:55.438Z,96762.19
2022-08-31T17:11:26.318Z,96754.50
2022-08-31T17:13:59.458Z,96759.22
2022-08-31T17:16:30.533Z,96761.19
2022-08-31T17:18:59.998Z,96765.56
2022-08-31T17:21:32.689Z,96761.72
2022-08-31T17:24:03.798Z,96765.25
2022-08-31T17:26:35.117Z,96766.97
2022-08-31T17:29:06.934Z,96770.53
2022-08-31T17:31:38.828Z,96774.53
2022-08-31T17:34:08.047Z,96776.84
2022-08-31T17:36:41.216Z,96778.78
2022-08-31T17:39:11.665Z,96779.81
2022-08-31T17:41:42.240Z,96787.53
2022-08-31T17:44:16.736Z,96793.03
2022-08-31T17:46:47.223Z,96790.28
2022-08-31T17:49:16.603Z,96781.84
2022-08-31T17:51:48.036Z,96793.38
2022-08-31T17:54:19.329Z,96792.25
2022-08-31T17:56:50.950Z,96792.25
2022-08-31T17:59:21.882Z,96798.00
2022-08-31T18:01:53.129Z,96798.28
2022-08-31T18:04:23.988Z,96801.56
2022-08-31T18:06:55.515Z,96800.97
2022-08-31T18:09:29.195Z,96801.28
2022-08-31T18:11:59.569Z,96786.75
2022-08-31T18:14:30.374Z,96801.31
2022-08-31T18:17:01.243Z,96802.53
2022-08-31T18:19:32.336Z,96797.66
2022-08-31T18:22:02.655Z,96803.81
2022-08-31T18:24:35.422Z,96812.34
2022-08-31T18:27:07.437Z,96807.66
2022-08-31T18:29:38.184Z,96807.38
2022-08-31T18:32:08.805Z,96809.59
2022-08-31T18:34:41.938Z,96814.28
2022-08-31T18:37:13.314Z,96808.25
2022-08-31T18:40:00.537Z,96818.66
2022-08-31T18:42:49.964Z,96817.31
2022-08-31T18:45:19.784Z,96818.44
2022-08-31T18:48:21.287Z,96819.50
2022-08-31T18:50:44.433Z,96814.56
2022-08-31T18:53:27.839Z,96813.50
2022-08-31T18:56:05.455Z,96824.44
2022-08-31T18:58:34.386Z,96822.75
2022-08-31T19:01:03.456Z,96820.00
2022-08-31T19:03:32.058Z,96823.63
2022-08-31T19:06:00.507Z,96814.59
2022-08-31T19:08:32.488Z,96821.50
2022-08-31T19:11:01.761Z,96815.13
2022-08-31T19:13:31.647Z,96807.44
2022-08-31T19:16:05.786Z,96817.59
2022-08-31T19:18:46.442Z,96822.22
2022-08-31T19:21:18.775Z,96821.09
2022-08-31T19:23:48.937Z,96820.91
2022-08-31T19:26:23.466Z,96812.44
2022-08-31T19:28:51.932Z,96813.25
2022-08-31T19:31:21.556Z,96815.75
2022-08-31T19:33:56.437Z,96807.53
2022-08-31T19:36:28.160Z,96810.28
2022-08-31T19:38:59.693Z,96815.25
2022-08-31T19:41:29.109Z,96817.44
2022-08-31T19:44:08.436Z,96818.50
2022-08-31T19:46:38.711Z,96822.34
2022-08-31T19:49:11.313Z,96817.94
2022-08-31T19:51:41.731Z,96814.91
2022-08-31T19:54:12.827Z,96816.63
2022-08-31T19:56:43.751Z,96813.38
2022-08-31T19:59:18.602Z,96808.44
2022-08-31T20:01:49.049Z,96824.06
2022-08-31T20:04:27.087Z,96820.53
2022-08-31T20:06:56.913Z,96813.41
2022-08-31T20:09:27.247Z,96812.38
2022-08-31T20:12:00.273Z,96813.44
2022-08-31T20:14:29.342Z,96810.16
2022-08-31T20:16:59.422Z,96791.28
2022-08-31T20:19:31.413Z,96806.09
2022-08-31T20:22:06.575Z,96809.38
2022-08-31T20:24:38.058Z,96810.16
2022-08-31T20:27:10.558Z,96808.75
2022-08-31T20:29:40.096Z,96809.03
2022-08-31T20:32:09.225Z,96813.13
2022-08-31T20:34:38.597Z,96811.47
2022-08-31T20:37:08.239Z,96803.22
2022-08-31T20:39:39.385Z,96805.44
2022-08-31T20:42:08.923Z,96796.13
2022-08-31T20:44:38.543Z,96796.97
2022-08-31T20:47:28.149Z,96798.97
2022-08-31T20:49:58.591Z,96798.75
2022-08-31T20:52:30.255Z,96793.00
2022-08-31T20:55:02.596Z,96794.59
2022-08-31T20:57:34.395Z,96792.91
2022-08-31T21:00:04.920Z,96792.91
2022-08-31T21:02:35.452Z,96797.38
2022-08-31T21:05:36.661Z,96794.41
2022-08-31T21:07:57.699Z,96796.03
2022-08-31T21:10:37.586Z,96807.00
2022-08-31T21:13:09.691Z,96801.00
2022-08-31T21:15:42.812Z,96811.38
2022-08-31T21:18:16.916Z,96806.38
2022-08-31T21:20:46.124Z,96803.94
2022-08-31T21:23:15.586Z,96806.09
2022-08-31T21:25:47.393Z,96799.78
2022-08-31T21:28:18.415Z,96807.22
2022-08-31T21:30:50.627Z,96807.22
2022-08-31T21:33:19.529Z,96808.84
2022-08-31T21:35:49.017Z,96799.00
2022-08-31T21:38:18.130Z,96797.94
2022-08-31T21:40:52.064Z,96800.47
2022-08-31T21:43:21.541Z,96801.53
2022-08-31T21:46:01.104Z,96800.72
2022-08-31T21:48:31.398Z,96797.69
2022-08-31T21:51:00.338Z,96800.19
2022-08-31T21:53:28.767Z,96803.16
2022-08-31T21:55:59.215Z,96796.84
2022-08-31T21:58:28.883Z,96794.09
2022-08-31T22:00:59.520Z,96793.56
2022-08-31T22:03:35.620Z,96800.97
2022-08-31T22:06:07.584Z,96799.59
2022-08-31T22:08:37.315Z,96799.88
2022-08-31T22:11:13.300Z,96803.44
2022-08-31T22:13:44.411Z,96802.03
2022-08-31T22:16:18.770Z,96798.47
2022-08-31T22:19:07.154Z,96799.31
2022-08-31T22:21:36.741Z,96801.53
2022-08-31T22:24:08.876Z,96804.03
2022-08-31T22:26:43.098Z,96801.84
2022-08-31T22:29:13.472Z,96812.28
2022-08-31T22:31:43.680Z,96800.78
2022-08-31T22:34:13.034Z,96822.13
2022-08-31T22:36:41.630Z,96815.25
2022-08-31T22:39:14.747Z,96808.69
2022-08-31T22:41:47.228Z,96808.69
2022-08-31T22:44:19.625Z,96817.44
2022-08-31T22:46:49.344Z,96802.91
2022-08-31T22:49:18.310Z,96791.44
2022-08-31T22:51:48.737Z,96800.19
2022-08-31T22:54:19.155Z,96814.13
2022-08-31T22:56:49.441Z,96811.69
2022-08-31T22:59:25.090Z,96807.00
2022-08-31T23:01:55.732Z,96810.06
2022-08-31T23:04:27.228Z,96812.56
2022-08-31T23:06:57.344Z,96807.34
2022-08-31T23:09:30.435Z,96784.34
2022-08-31T23:12:03.151Z,96804.56
2022-08-31T23:14:33.528Z,96802.66
2022-08-31T23:17:05.478Z,96801.28
2022-08-31T23:19:37.287Z,96799.09
2022-08-31T23:22:09.617Z,96795.00
2022-08-31T23:24:42.004Z,96798.28
2022-08-31T23:27:13.995Z,96784.63
2022-08-31T23:29:47.127Z,96792.56
2022-08-31T23:32:19.667Z,96786.53
2022-08-31T23:34:50.607Z,96788.47
2022-08-31T23:37:23.608Z,96778.31
2022-08-31T23:39:55.867Z,96776.97
2022-08-31T23:42:29.237Z,96779.97
2022-08-31T23:44:59.439Z,96772.03
2022-08-31T23:47:30.730Z,96770.41
2022-08-31T23:50:03.377Z,96775.06
2022-08-31T23:52:41.509Z,96770.09
2022-08-31T23:55:12.326Z,96773.13
2022-08-31T23:57:43.842Z,96765.16
